Time;durP1;ratioP1;P1;durP2;ratioP2;P2;SDS_P1;SDS_P2;PMS_P1;PMS_P2;Temp;Humidity;BMP_temperature;BMP_pressure;BME280_temperature;BME280_humidity;BME280_pressure;Samples;Min_cycle;Max_cycle;Signal;HPM_P1;HPM_P2
2021/05/23 00:01:17;;;;;;;28.08;25.83;;;;;;;10.44;100.00;101150.78;5033490;28;20045;-87
2021/05/23 00:03:44;;;;;;;29.30;27.17;;;;;;;10.24;100.00;101143.50;5033766;28;20068;-88
2021/05/23 00:06:10;;;;;;;27.38;25.17;;;;;;;10.25;100.00;101153.09;5032003;28;20045;-88
2021/05/23 00:08:37;;;;;;;27.20;24.95;;;;;;;10.19;100.00;101147.75;5033650;28;20049;-88
2021/05/23 00:11:06;;;;;;;28.30;26.30;;;;;;;10.18;100.00;101144.28;5034069;28;20076;-88
2021/05/23 00:13:35;;;;;;;27.67;25.67;;;;;;;10.16;100.00;101142.81;5033804;28;20057;-88
2021/05/23 00:16:05;;;;;;;28.20;26.10;;;;;;;10.16;100.00;101135.66;5033618;28;20080;-88
2021/05/23 00:18:35;;;;;;;30.10;27.83;;;;;;;10.06;100.00;101127.22;5033548;28;20046;-88
2021/05/23 00:21:02;;;;;;;26.10;23.85;;;;;;;10.08;100.00;101128.69;5033359;28;20095;-88
2021/05/23 00:23:29;;;;;;;28.30;26.10;;;;;;;10.05;100.00;101131.72;5033543;28;20046;-88
2021/05/23 00:25:56;;;;;;;26.77;24.77;;;;;;;10.06;100.00;101128.03;5031810;28;20045;-88
2021/05/23 00:28:22;;;;;;;25.00;22.67;;;;;;;10.00;100.00;101138.63;5033361;28;20052;-89
2021/05/23 00:30:50;;;;;;;26.92;24.92;;;;;;;9.95;100.00;101130.41;5033582;28;20049;-88
2021/05/23 00:33:17;;;;;;;25.52;23.63;;;;;;;10.00;100.00;101130.66;5033394;28;20053;-88
2021/05/23 00:35:43;;;;;;;27.80;25.55;;;;;;;10.04;100.00;101130.06;5033909;28;20430;-88
2021/05/23 00:38:10;;;;;;;25.70;23.50;;;;;;;9.96;100.00;101126.75;5033829;28;20411;-87
2021/05/23 00:40:39;;;;;;;27.80;25.67;;;;;;;9.83;100.00;101125.63;5032855;28;20064;-88
2021/05/23 00:43:08;;;;;;;28.80;26.42;;;;;;;9.78;100.00;101133.31;5033197;28;20419;-88
2021/05/23 00:45:34;;;;;;;27.40;25.40;;;;;;;9.88;100.00;101130.34;5033282;28;20483;-88
2021/05/23 00:48:01;;;;;;;27.17;25.17;;;;;;;9.84;100.00;101126.44;5033062;28;20045;-88
2021/05/23 00:50:28;;;;;;;27.42;25.35;;;;;;;9.84;100.00;101135.22;5032893;28;20048;-88
2021/05/23 00:52:56;;;;;;;28.65;26.35;;;;;;;9.92;100.00;101131.59;5032764;28;20056;-88
2021/05/23 00:55:22;;;;;;;27.75;25.85;;;;;;;10.16;100.00;101130.34;5032801;28;20045;-88
2021/05/23 00:57:50;;;;;;;26.88;25.10;;;;;;;10.03;100.00;101124.97;5032357;28;20045;-87
2021/05/23 01:01:04;;;;;;;28.80;26.67;;;;;;;9.95;100.00;101122.44;5032929;28;20049;-88
2021/05/23 01:03:57;;;;;;;27.38;24.83;;;;;;;9.80;100.00;101119.84;5033041;28;20088;-88
2021/05/23 01:06:24;;;;;;;26.98;24.92;;;;;;;9.74;100.00;101120.63;5032473;28;20115;-87
2021/05/23 01:08:50;;;;;;;27.10;25.05;;;;;;;9.71;100.00;101127.13;5032508;28;20099;-88
2021/05/23 01:11:53;;;;;;;30.05;27.52;;;;;;;9.44;100.00;101120.78;5032499;28;20081;-88
2021/05/23 01:14:38;;;;;;;27.05;25.05;;;;;;;9.42;100.00;101127.25;5032762;28;20084;-87
2021/05/23 01:17:05;;;;;;;26.52;24.63;;;;;;;9.37;100.00;101131.28;5032223;28;20045;-88
2021/05/23 01:19:41;;;;;;;27.58;25.33;;;;;;;9.41;100.00;101145.00;5032740;28;20057;-88
2021/05/23 01:22:12;;;;;;;26.92;24.92;;;;;;;9.40;100.00;101133.56;5032727;28;20443;-88
2021/05/23 01:24:41;;;;;;;28.38;26.30;;;;;;;9.42;100.00;101136.03;5032634;28;20046;-88
2021/05/23 01:27:10;;;;;;;26.48;24.48;;;;;;;9.29;100.00;101125.28;5032468;28;20054;-88
2021/05/23 01:29:38;;;;;;;25.23;23.42;;;;;;;9.47;100.00;101135.47;5032553;28;20057;-88
2021/05/23 01:32:06;;;;;;;27.67;25.58;;;;;;;9.57;100.00;101134.16;5032531;28;20076;-88
2021/05/23 01:34:34;;;;;;;26.33;24.58;;;;;;;9.51;100.00;101132.25;5031750;28;20425;-88
2021/05/23 01:37:07;;;;;;;26.30;23.85;;;;;;;9.58;100.00;101132.31;5031255;28;20053;-88
2021/05/23 01:39:33;;;;;;;;;;;;;;;9.46;100.00;101124.03;5032786;28;20103;-88
2021/05/23 01:42:00;;;;;;;26.90;24.85;;;;;;;9.52;100.00;101130.41;5032470;28;19928;-88
2021/05/23 01:44:27;;;;;;;28.67;26.38;;;;;;;9.64;100.00;101132.38;5032484;28;20427;-88
2021/05/23 01:46:54;;;;;;;27.08;24.90;;;;;;;9.64;100.00;101128.91;5032221;28;20104;-88
2021/05/23 01:49:20;;;;;;;26.75;24.48;;;;;;;9.71;100.00;101128.97;5032192;28;20046;-88
2021/05/23 01:51:47;;;;;;;25.35;23.50;;;;;;;9.79;100.00;101120.88;5032340;28;20412;-88
2021/05/23 01:54:13;;;;;;;25.88;24.00;;;;;;;9.79;100.00;101126.19;5032293;28;20105;-88
2021/05/23 01:56:39;;;;;;;27.55;24.27;;;;;;;9.71;100.00;101126.31;5032441;28;20052;-88
2021/05/23 01:59:05;;;;;;;25.95;24.05;;;;;;;9.67;100.00;101119.75;5032039;28;20115;-88
2021/05/23 02:01:33;;;;;;;27.20;25.15;;;;;;;9.67;100.00;101117.09;5068917;22;20051;-79
2021/05/23 02:04:01;;;;;;;26.08;24.08;;;;;;;9.75;100.00;101120.44;5072889;28;20376;-79
2021/05/23 02:06:28;;;;;;;27.00;25.00;;;;;;;9.67;100.00;101125.06;5072538;28;20060;-78
2021/05/23 02:08:55;;;;;;;26.77;24.77;;;;;;;9.75;100.00;101128.41;5074482;28;20055;-81
2021/05/23 02:11:21;;;;;;;27.63;25.60;;;;;;;9.80;100.00;101128.66;5076712;28;20056;-80
2021/05/23 02:13:51;;;;;;;25.45;23.35;;;;;;;9.70;100.00;101129.97;5076991;28;20044;-79
2021/05/23 02:16:18;;;;;;;28.33;26.13;;;;;;;9.66;100.00;101126.91;5076698;28;20052;-80
2021/05/23 02:18:45;;;;;;;25.83;23.80;;;;;;;9.77;100.00;101122.91;5076539;28;20132;-77
2021/05/23 02:21:15;;;;;;;25.75;23.63;;;;;;;9.74;100.00;101125.94;5077402;28;20454;-82
2021/05/23 02:23:49;;;;;;;26.13;24.13;;;;;;;9.68;100.00;101124.03;5076746;28;20106;-77
2021/05/23 02:26:15;;;;;;;27.38;25.15;;;;;;;9.65;100.00;101119.94;5076736;28;20048;-79
2021/05/23 02:28:41;;;;;;;27.77;25.83;;;;;;;9.70;100.00;101132.63;5076276;28;20040;-80
2021/05/23 02:31:08;;;;;;;24.90;23.10;;;;;;;9.70;100.00;101127.31;5076398;28;20495;-79
2021/05/23 02:33:34;;;;;;;30.08;27.67;;;;;;;9.64;100.00;101137.69;5076306;28;20056;-77
2021/05/23 02:36:01;;;;;;;27.10;24.90;;;;;;;9.66;100.00;101129.53;5076510;28;20040;-80
2021/05/23 02:38:28;;;;;;;26.00;23.90;;;;;;;9.66;100.00;101134.03;5076495;28;20055;-77
2021/05/23 02:40:54;;;;;;;26.75;24.83;;;;;;;9.61;100.00;101140.72;5076113;28;20060;-77
2021/05/23 02:43:21;;;;;;;27.05;24.80;;;;;;;9.61;100.00;101129.28;5076926;28;20060;-80
2021/05/23 02:45:48;;;;;;;26.08;23.65;;;;;;;9.43;100.00;101145.63;5076855;28;20048;-78
2021/05/23 02:48:15;;;;;;;26.98;24.95;;;;;;;9.38;100.00;101142.72;5076168;28;20044;-79
2021/05/23 02:50:44;;;;;;;28.10;26.00;;;;;;;9.38;100.00;101146.19;5076283;28;20048;-78
2021/05/23 02:53:12;;;;;;;26.05;23.83;;;;;;;9.37;100.00;101144.53;5076260;28;20399;-79
2021/05/23 02:55:41;;;;;;;25.20;23.02;;;;;;;9.19;100.00;101146.78;5076368;28;20044;-78
2021/05/23 02:58:08;;;;;;;24.73;22.90;;;;;;;9.15;100.00;101153.47;5076844;28;20048;-80
2021/05/23 03:00:35;;;;;;;26.10;23.77;;;;;;;9.23;100.00;101156.03;5075597;28;20059;-79
2021/05/23 03:03:02;;;;;;;27.13;24.90;;;;;;;9.12;100.00;101151.19;5075881;28;20040;-78
2021/05/23 03:05:28;;;;;;;26.77;24.58;;;;;;;8.96;100.00;101152.22;5092578;22;20072;-88
2021/05/23 03:07:56;;;;;;;28.98;26.60;;;;;;;9.00;100.00;101150.03;5094382;28;20493;-88
2021/05/23 03:10:25;;;;;;;25.92;23.63;;;;;;;9.11;100.00;101155.69;5095172;28;20048;-89
2021/05/23 03:12:52;;;;;;;28.27;25.73;;;;;;;9.32;100.00;101160.19;5095111;28;20052;-87
2021/05/23 03:15:21;;;;;;;26.67;24.67;;;;;;;9.29;100.00;101160.56;5094774;28;20101;-88
2021/05/23 03:17:47;;;;;;;31.85;29.48;;;;;;;9.26;100.00;101160.09;5094635;28;20105;-88
2021/05/23 03:20:16;;;;;;;24.75;22.85;;;;;;;9.41;100.00;101166.22;5095165;28;20106;-89
2021/05/23 03:22:44;;;;;;;24.23;22.50;;;;;;;9.45;100.00;101167.47;5094919;28;20089;-88
2021/05/23 03:25:12;;;;;;;25.27;23.02;;;;;;;9.51;100.00;101172.03;5094862;28;20051;-88
2021/05/23 03:27:40;;;;;;;24.75;23.05;;;;;;;9.57;100.00;101176.59;5095023;28;20044;-88
2021/05/23 03:30:10;;;;;;;27.08;25.08;;;;;;;9.66;100.00;101174.63;5094717;28;20048;-88
2021/05/23 03:32:37;;;;;;;25.90;23.92;;;;;;;9.44;100.00;101170.28;5094446;28;20512;-88
2021/05/23 03:35:04;;;;;;;26.48;24.42;;;;;;;9.52;100.00;101172.84;5094340;28;20428;-88
2021/05/23 03:37:30;;;;;;;25.73;23.95;;;;;;;9.58;100.00;101167.59;5094675;28;20474;-88
2021/05/23 03:39:56;;;;;;;25.30;23.45;;;;;;;9.56;100.00;101163.50;5094427;28;20055;-88
2021/05/23 03:42:23;;;;;;;25.10;23.05;;;;;;;9.52;100.00;101162.25;5094333;28;20423;-89
2021/05/23 03:44:50;;;;;;;25.70;23.38;;;;;;;9.32;100.00;101168.16;5094397;28;20059;-88
2021/05/23 03:47:17;;;;;;;24.08;22.23;;;;;;;9.48;100.00;101169.75;5093772;28;20102;-87
2021/05/23 03:49:43;;;;;;;24.40;22.60;;;;;;;9.53;100.00;101171.81;5094425;28;20044;-88
2021/05/23 03:52:10;;;;;;;24.25;22.55;;;;;;;9.87;100.00;101173.81;5094119;28;20040;-88
2021/05/23 03:54:37;;;;;;;24.35;22.60;;;;;;;10.05;100.00;101178.69;5094208;28;20044;-88
2021/05/23 03:57:04;;;;;;;24.05;22.40;;;;;;;10.36;100.00;101186.31;5093965;28;20055;-88
2021/05/23 03:59:30;;;;;;;24.77;22.40;;;;;;;10.36;100.00;101188.13;5094424;28;20051;-88
2021/05/23 04:01:57;;;;;;;24.33;22.73;;;;;;;10.64;100.00;101182.81;5094056;28;20052;-88
2021/05/23 04:04:24;;;;;;;24.90;23.10;;;;;;;10.65;100.00;101177.31;5094192;28;20051;-88
2021/05/23 04:06:51;;;;;;;24.00;21.95;;;;;;;10.73;100.00;101177.16;5093713;28;20405;-88
2021/05/23 04:09:18;;;;;;;26.20;24.40;;;;;;;10.98;100.00;101182.81;5093520;28;20049;-88
2021/05/23 04:11:47;;;;;;;25.42;23.55;;;;;;;11.10;100.00;101174.25;5093905;28;20470;-89
2021/05/23 04:14:13;;;;;;;24.67;23.15;;;;;;;11.09;100.00;101176.09;5093981;28;20462;-88
2021/05/23 04:16:40;;;;;;;26.95;25.05;;;;;;;11.13;100.00;101169.38;5094513;28;20540;-88
2021/05/23 04:19:07;;;;;;;25.02;23.33;;;;;;;11.27;100.00;101172.91;5093703;28;20109;-89
2021/05/23 04:21:34;;;;;;;24.90;23.40;;;;;;;11.40;100.00;101182.75;5093482;28;20048;-88
2021/05/23 04:24:01;;;;;;;26.20;24.40;;;;;;;11.55;100.00;101187.91;5093371;28;20052;-89
2021/05/23 04:26:27;;;;;;;25.85;24.25;;;;;;;11.58;100.00;101187.53;5093682;28;20109;-88
2021/05/23 04:28:53;;;;;;;25.77;23.75;;;;;;;11.75;100.00;101183.47;5093400;28;20070;-89
2021/05/23 04:31:20;;;;;;;25.50;23.88;;;;;;;11.93;100.00;101190.09;5092961;28;20040;-89
2021/05/23 04:33:46;;;;;;;26.40;24.42;;;;;;;11.86;100.00;101176.75;5093677;28;20051;-88
2021/05/23 04:36:13;;;;;;;25.75;24.00;;;;;;;12.03;100.00;101185.97;5093381;28;20048;-89
2021/05/23 04:38:39;;;;;;;27.25;25.55;;;;;;;12.30;100.00;101186.81;5093224;28;20051;-88
2021/05/23 04:41:06;;;;;;;27.33;25.63;;;;;;;12.25;100.00;101194.59;5093455;28;20052;-87
2021/05/23 04:43:32;;;;;;;29.38;27.48;;;;;;;12.35;100.00;101196.84;5093507;28;20066;-87
2021/05/23 04:45:58;;;;;;;28.85;27.08;;;;;;;12.37;100.00;101200.97;5093250;28;20051;-89
2021/05/23 04:48:24;;;;;;;27.73;25.85;;;;;;;12.49;100.00;101195.00;5092843;28;20433;-89
2021/05/23 04:50:51;;;;;;;28.00;26.33;;;;;;;12.64;100.00;101198.25;5092995;28;20047;-87
2021/05/23 04:53:18;;;;;;;27.33;25.63;;;;;;;12.86;100.00;101205.97;5093162;28;20048;-88
2021/05/23 04:55:44;;;;;;;26.17;24.48;;;;;;;12.90;100.00;101197.38;5093184;28;20055;-88
2021/05/23 04:58:11;;;;;;;26.60;24.90;;;;;;;13.07;100.00;101214.56;5092975;28;20052;-88
2021/05/23 05:11:17;;;;;;;31.23;29.33;;;;;;;14.06;100.00;101223.09;4714409;27;10001952;-76
2021/05/23 05:13:43;;;;;;;29.33;27.42;;;;;;;14.19;100.00;101227.50;5058314;28;20060;-79
2021/05/23 05:16:11;;;;;;;26.75;24.65;;;;;;;14.35;100.00;101229.66;5054870;28;20049;-78
2021/05/23 05:18:37;;;;;;;29.98;28.02;;;;;;;14.43;100.00;101229.41;5051979;28;20045;-81
2021/05/23 05:21:04;;;;;;;27.25;25.52;;;;;;;14.62;100.00;101237.50;5057976;28;20056;-77
2021/05/23 05:23:30;;;;;;;26.83;25.33;;;;;;;14.69;100.00;101240.91;5051675;28;20756;-80
2021/05/23 05:25:58;;;;;;;28.27;26.48;;;;;;;14.86;100.00;101235.81;5051901;28;20580;-78
2021/05/23 05:28:25;;;;;;;28.98;27.17;;;;;;;14.94;100.00;101237.38;5045200;28;20472;-77
2021/05/23 05:30:52;;;;;;;28.70;26.33;;;;;;;15.08;100.00;101249.56;5053930;28;20512;-78
2021/05/23 05:33:18;;;;;;;26.98;25.08;;;;;;;15.29;100.00;101246.44;5054570;28;20591;-80
2021/05/23 05:35:44;;;;;;;28.38;26.45;;;;;;;15.60;100.00;101246.47;5054396;28;20053;-77
2021/05/23 05:38:12;;;;;;;30.00;27.92;;;;;;;15.67;100.00;101248.03;5048108;28;20053;-79
2021/05/23 05:40:39;;;;;;;26.90;25.20;;;;;;;15.74;100.00;101243.44;5052389;28;20053;-79
2021/05/23 05:43:05;;;;;;;28.05;26.13;;;;;;;15.77;100.00;101244.84;5052619;28;20056;-80
2021/05/23 05:45:32;;;;;;;25.38;23.85;;;;;;;15.92;100.00;101231.84;5057812;28;20067;-78
2021/05/23 05:47:58;;;;;;;27.95;26.10;;;;;;;16.10;100.00;101235.50;5056090;28;20190;-80
2021/05/23 05:50:25;;;;;;;27.75;26.02;;;;;;;16.29;100.00;101237.03;5052122;28;20063;-79
2021/05/23 05:52:51;;;;;;;30.20;28.33;;;;;;;16.60;100.00;101238.56;5053082;28;20123;-80
2021/05/23 05:55:17;;;;;;;29.95;27.80;;;;;;;16.66;100.00;101234.16;5051687;28;20078;-79
2021/05/23 05:57:44;;;;;;;31.40;29.55;;;;;;;16.69;100.00;101234.50;5056723;28;20057;-78
2021/05/23 06:00:11;;;;;;;30.27;28.30;;;;;;;16.75;100.00;101235.41;5058155;28;20113;-80
2021/05/23 06:02:38;;;;;;;26.80;25.00;;;;;;;16.85;100.00;101235.69;5051315;28;20048;-80
2021/05/23 06:05:05;;;;;;;30.17;28.33;;;;;;;17.08;100.00;101234.00;5049149;28;20049;-78
2021/05/23 06:07:32;;;;;;;33.80;31.60;;;;;;;17.22;100.00;101248.00;5054488;28;20041;-80
2021/05/23 06:09:58;;;;;;;28.98;26.92;;;;;;;17.30;100.00;101243.06;5050350;28;20063;-78
2021/05/23 06:12:24;;;;;;;26.52;25.02;;;;;;;17.42;100.00;101245.72;5039580;28;20052;-80
2021/05/23 06:14:50;;;;;;;28.05;26.15;;;;;;;17.82;100.00;101247.56;5038704;28;20060;-78
2021/05/23 06:17:17;;;;;;;29.23;27.13;;;;;;;17.92;100.00;101249.63;5042210;28;20049;-78
2021/05/23 06:19:44;;;;;;;27.63;25.92;;;;;;;17.94;100.00;101251.00;5040520;28;20477;-80
2021/05/23 06:22:10;;;;;;;32.83;30.85;;;;;;;17.99;100.00;101267.22;5037411;28;20049;-79
2021/05/23 06:24:37;;;;;;;29.45;27.65;;;;;;;17.93;100.00;101253.94;5040187;28;20512;-79
2021/05/23 06:27:03;;;;;;;28.92;27.33;;;;;;;18.20;100.00;101267.59;5037884;28;20074;-80
2021/05/23 06:29:30;;;;;;;28.75;26.92;;;;;;;18.48;100.00;101266.69;5038805;28;20481;-79
2021/05/23 06:31:56;;;;;;;31.33;29.30;;;;;;;18.34;100.00;101266.22;5044051;28;20461;-77
2021/05/23 06:34:22;;;;;;;32.45;30.33;;;;;;;18.57;100.00;101269.78;5037019;28;20091;-80
2021/05/23 06:36:49;;;;;;;29.08;27.17;;;;;;;18.57;100.00;101269.78;5035791;28;20561;-83
2021/05/23 06:39:16;;;;;;;29.75;27.10;;;;;;;18.66;100.00;101265.63;5036114;28;20049;-80
2021/05/23 06:41:42;;;;;;;27.95;26.27;;;;;;;18.73;100.00;101267.13;5042220;28;20045;-78
2021/05/23 06:44:08;;;;;;;29.70;27.75;;;;;;;18.91;100.00;101266.03;5041699;28;20057;-77
2021/05/23 06:46:35;;;;;;;28.48;26.75;;;;;;;19.23;100.00;101271.56;5035743;28;20053;-80
2021/05/23 06:49:02;;;;;;;29.15;27.15;;;;;;;19.27;100.00;101266.47;5035912;28;20078;-78
2021/05/23 06:51:28;;;;;;;28.73;26.92;;;;;;;19.33;100.00;101270.06;5037725;28;20404;-77
2021/05/23 06:53:55;;;;;;;29.98;27.98;;;;;;;19.42;100.00;101277.44;5039809;28;20478;-78
2021/05/23 06:56:22;;;;;;;26.88;25.27;;;;;;;19.89;100.00;101265.31;5042225;28;20162;-81
2021/05/23 06:58:48;;;;;;;28.80;26.90;;;;;;;19.67;100.00;101268.88;5040292;28;20049;-79
2021/05/23 07:01:14;;;;;;;26.38;24.77;;;;;;;19.68;100.00;101278.59;5038405;28;20052;-79
2021/05/23 07:03:41;;;;;;;27.10;25.50;;;;;;;19.79;100.00;101268.75;5039862;28;20443;-79
2021/05/23 07:06:07;;;;;;;26.48;24.67;;;;;;;19.82;100.00;101268.22;5034203;28;20064;-79
2021/05/23 07:08:33;;;;;;;26.88;24.90;;;;;;;19.98;100.00;101276.47;5036293;28;20076;-78
2021/05/23 07:11:00;;;;;;;27.45;25.65;;;;;;;20.16;100.00;101272.59;5038135;28;20552;-80
2021/05/23 07:13:27;;;;;;;26.33;24.83;;;;;;;20.23;100.00;101265.91;5036567;28;20053;-76
2021/05/23 07:15:53;;;;;;;26.50;24.85;;;;;;;20.40;100.00;101264.97;5036021;28;20106;-77
2021/05/23 07:18:20;;;;;;;26.83;25.33;;;;;;;20.62;100.00;101262.97;5040386;28;20067;-77
2021/05/23 07:20:46;;;;;;;26.77;25.02;;;;;;;20.65;100.00;101253.56;5034735;28;20068;-78
2021/05/23 07:23:13;;;;;;;25.48;23.92;;;;;;;20.72;100.00;101254.94;5039114;28;20195;-78
2021/05/23 07:25:40;;;;;;;25.83;24.42;;;;;;;20.70;100.00;101251.72;5035137;28;20053;-77
2021/05/23 07:28:07;;;;;;;26.40;24.80;;;;;;;20.91;100.00;101260.75;5040422;28;20118;-77
2021/05/23 07:30:34;;;;;;;27.27;25.38;;;;;;;21.07;100.00;101250.81;5033639;28;20099;-78
2021/05/23 07:33:00;;;;;;;26.98;25.35;;;;;;;20.00;100.00;101244.66;5040551;28;20049;-80
2021/05/23 07:35:27;;;;;;;27.85;25.88;;;;;;;20.59;100.00;101242.72;5033705;28;20045;-79
2021/05/23 07:37:53;;;;;;;25.90;24.50;;;;;;;21.29;100.00;101237.13;5039990;28;20496;-78
2021/05/23 07:40:20;;;;;;;25.25;23.58;;;;;;;21.36;100.00;101242.31;5034508;28;20053;-80
2021/05/23 07:42:46;;;;;;;25.50;24.10;;;;;;;21.41;100.00;101236.94;5038956;28;20056;-78
2021/05/23 07:45:14;;;;;;;25.63;23.98;;;;;;;21.21;100.00;101226.84;5039346;28;20060;-79
2021/05/23 07:47:40;;;;;;;26.60;25.00;;;;;;;21.71;100.00;101225.38;5036989;28;20482;-77
2021/05/23 07:50:08;;;;;;;26.05;24.35;;;;;;;21.86;100.00;101225.41;5039834;28;20075;-79
2021/05/23 07:52:36;;;;;;;27.00;25.50;;;;;;;21.86;100.00;101221.91;5042775;28;20048;-77
2021/05/23 07:55:03;;;;;;;26.23;24.77;;;;;;;20.87;100.00;101215.63;5040696;28;20059;-79
2021/05/23 07:57:29;;;;;;;26.52;24.92;;;;;;;21.95;100.00;101215.69;5038252;28;20049;-78
2021/05/23 07:59:55;;;;;;;26.08;24.40;;;;;;;21.91;100.00;101214.59;5076359;22;20055;-90
2021/05/23 08:02:22;;;;;;;26.05;24.55;;;;;;;22.21;100.00;101220.28;5076697;28;20114;-89
2021/05/23 08:04:49;;;;;;;27.45;25.77;;;;;;;21.99;100.00;101210.53;5073460;28;20047;-89
2021/05/23 08:07:15;;;;;;;26.90;25.30;;;;;;;21.77;100.00;101213.50;5076332;28;20483;-89
2021/05/23 08:09:42;;;;;;;26.90;25.25;;;;;;;22.66;100.00;101210.47;5076706;28;20040;-89
2021/05/23 08:12:08;;;;;;;28.60;26.58;;;;;;;22.60;100.00;101207.81;5076148;28;20051;-90
2021/05/23 08:14:35;;;;;;;27.30;25.58;;;;;;;22.78;100.00;101214.50;5075427;28;20109;-89
2021/05/23 08:17:02;;;;;;;26.92;25.52;;;;;;;22.62;100.00;101213.75;5073073;28;20151;-90
2021/05/23 08:19:29;;;;;;;27.90;25.67;;;;;;;23.09;100.00;101209.84;5075310;28;20399;-89
2021/05/23 08:21:56;;;;;;;26.90;25.40;;;;;;;23.23;100.00;101203.81;5073117;28;20052;-90
2021/05/23 08:24:22;;;;;;;26.83;25.30;;;;;;;23.01;100.00;101202.28;5075156;28;20056;-89
2021/05/23 08:26:49;;;;;;;26.10;24.50;;;;;;;23.26;100.00;101203.25;5075987;28;20052;-88
2021/05/23 08:29:15;;;;;;;27.55;26.05;;;;;;;22.71;100.00;101202.34;5067285;28;20093;-88
2021/05/23 08:31:42;;;;;;;25.92;24.50;;;;;;;23.24;100.00;101203.53;5074658;28;20056;-88
2021/05/23 08:34:08;;;;;;;25.40;23.83;;;;;;;23.46;100.00;101205.84;5076206;28;20044;-89
2021/05/23 08:36:35;;;;;;;25.40;24.00;;;;;;;23.88;100.00;101207.22;5077105;28;20060;-89
2021/05/23 08:39:03;;;;;;;25.55;24.02;;;;;;;23.95;100.00;101206.88;5077548;28;20107;-89
2021/05/23 08:41:29;;;;;;;24.83;23.42;;;;;;;23.29;100.00;101208.09;5074636;28;20530;-89
2021/05/23 08:43:55;;;;;;;26.15;24.65;;;;;;;23.58;100.00;101220.97;5073752;28;20049;-90
2021/05/23 08:46:22;;;;;;;26.75;25.33;;;;;;;24.05;99.77;101209.50;5075136;28;20040;-88
2021/05/23 08:48:49;;;;;;;25.15;23.65;;;;;;;23.24;100.00;101216.28;5073388;28;20456;-89
2021/05/23 08:51:15;;;;;;;25.55;23.95;;;;;;;21.90;100.00;101210.25;5073528;28;20520;-89
2021/05/23 08:53:44;;;;;;;25.10;23.63;;;;;;;23.31;100.00;101214.88;5074717;28;20048;-90
2021/05/23 08:56:11;;;;;;;25.65;24.15;;;;;;;24.14;100.00;101217.84;5072874;28;20505;-89
2021/05/23 08:58:37;;;;;;;26.00;24.50;;;;;;;24.48;94.63;101208.88;5083332;28;20051;-90
2021/05/23 09:01:03;;;;;;;25.17;23.70;;;;;;;24.48;93.65;101203.44;5075319;28;20113;-90
2021/05/23 09:03:30;;;;;;;26.92;25.42;;;;;;;23.90;100.00;101209.63;5072508;28;20052;-89
2021/05/23 09:05:56;;;;;;;26.75;25.05;;;;;;;23.08;100.00;101200.06;5076626;28;20524;-90
2021/05/23 09:08:26;;;;;;;27.48;25.77;;;;;;;24.23;99.16;101178.94;5078895;28;20074;-90
2021/05/23 09:10:56;;;;;;;27.95;26.25;;;;;;;24.27;100.00;101181.09;5079063;28;20101;-89
2021/05/23 09:13:31;;;;;;;26.88;25.27;;;;;;;24.64;99.21;101180.47;5079196;28;20126;-89
2021/05/23 09:15:59;;;;;;;29.63;27.63;;;;;;;24.49;100.00;101183.34;5079582;28;20063;-90
2021/05/23 09:18:25;;;;;;;27.73;26.13;;;;;;;24.81;99.37;101188.97;5080980;28;20059;-89
2021/05/23 09:21:00;;;;;;;27.50;25.90;;;;;;;24.20;100.00;101197.72;5076462;28;20045;-90
2021/05/23 09:23:27;;;;;;;26.42;24.85;;;;;;;23.23;100.00;101201.91;5076749;28;20052;-89
2021/05/23 09:25:54;;;;;;;26.65;24.73;;;;;;;24.94;98.62;101198.31;5080990;28;20048;-89
2021/05/23 09:28:29;;;;;;;26.98;25.17;;;;;;;22.54;100.00;101198.09;5078907;28;20058;-89
2021/05/23 09:30:56;;;;;;;26.83;25.10;;;;;;;24.61;100.00;101198.16;5074983;28;20052;-89
2021/05/23 09:33:22;;;;;;;27.02;25.42;;;;;;;25.31;87.00;101194.84;5079394;28;20056;-89
2021/05/23 09:35:49;;;;;;;26.15;24.35;;;;;;;24.82;97.87;101196.00;5079196;28;20123;-90
2021/05/23 09:38:18;;;;;;;27.42;25.73;;;;;;;25.32;87.50;101192.94;5080348;28;20063;-90
2021/05/23 09:40:45;;;;;;;25.77;24.08;;;;;;;24.90;85.19;101187.22;5080489;28;20048;-88
2021/05/23 09:43:19;;;;;;;26.73;25.23;;;;;;;24.26;95.69;101179.47;5081325;28;20471;-89
2021/05/23 09:45:48;;;;;;;26.65;25.25;;;;;;;25.02;87.19;101178.63;5083859;28;20052;-90
2021/05/23 09:48:19;;;;;;;25.73;24.20;;;;;;;25.04;87.51;101173.72;5082988;28;20048;-89
2021/05/23 09:50:47;;;;;;;26.98;25.27;;;;;;;25.28;77.65;101176.41;5085106;28;20055;-88
2021/05/23 09:53:21;;;;;;;25.92;24.33;;;;;;;25.40;76.29;101173.25;5081465;28;20574;-89
2021/05/23 09:55:56;;;;;;;25.70;24.10;;;;;;;24.82;90.79;101166.13;5080054;28;20055;-89
2021/05/23 09:58:26;;;;;;;26.05;24.45;;;;;;;25.40;79.15;101164.28;5082633;28;20102;-90
2021/05/23 10:00:53;;;;;;;24.73;23.25;;;;;;;25.41;86.93;101161.25;5078860;28;20509;-89
2021/05/23 10:03:25;;;;;;;26.48;24.88;;;;;;;25.71;81.68;101164.63;5082676;28;20047;-89
2021/05/23 10:05:52;;;;;;;25.52;23.95;;;;;;;24.77;100.00;101176.25;5081754;28;20059;-90
2021/05/23 10:08:18;;;;;;;26.35;24.75;;;;;;;24.87;100.00;101182.38;5084748;28;20113;-89
2021/05/23 10:10:46;;;;;;;26.42;24.92;;;;;;;25.54;89.42;101174.13;5081470;28;20056;-89
2021/05/23 10:13:13;;;;;;;26.17;24.67;;;;;;;25.87;91.56;101176.91;5082344;28;20056;-90
2021/05/23 10:15:41;;;;;;;26.38;24.60;;;;;;;26.04;94.42;101181.78;5077179;28;20086;-90
2021/05/23 10:18:08;;;;;;;26.23;24.73;;;;;;;25.70;95.48;101179.34;5081703;28;20048;-89
2021/05/23 10:20:36;;;;;;;25.10;23.65;;;;;;;26.23;83.22;101185.25;5084596;28;20040;-89
2021/05/23 10:23:08;;;;;;;25.48;23.50;;;;;;;25.98;67.85;101178.34;5080506;28;20040;-91
2021/05/23 10:25:38;;;;;;;24.23;22.92;;;;;;;25.89;77.94;101182.03;5084253;28;20052;-90
2021/05/23 10:28:05;;;;;;;24.70;23.30;;;;;;;24.17;98.16;101180.09;5082234;28;20425;-89
2021/05/23 10:30:32;;;;;;;25.75;24.27;;;;;;;25.15;94.95;101174.44;5075745;28;20049;-90
2021/05/23 10:33:10;;;;;;;25.83;24.42;;;;;;;26.26;86.81;101170.22;5084280;28;20059;-89
2021/05/23 10:35:41;;;;;;;25.00;23.30;;;;;;;26.42;98.01;101181.66;5078715;28;20048;-90
2021/05/23 10:38:10;;;;;;;25.98;24.23;;;;;;;24.97;100.00;101176.00;5084326;28;20052;-89
2021/05/23 10:40:50;;;;;;;25.38;23.98;;;;;;;26.12;92.46;101172.13;5080060;28;20052;-91
2021/05/23 10:43:22;;;;;;;25.02;23.60;;;;;;;25.39;98.55;101168.09;5083848;28;20048;-89
2021/05/23 10:45:49;;;;;;;27.10;25.60;;;;;;;26.45;99.42;101172.88;5085912;28;20048;-90
2021/05/23 10:48:18;;;;;;;26.20;24.60;;;;;;;26.71;81.34;101165.81;5081872;28;20056;-90
2021/05/23 10:50:47;;;;;;;24.80;23.13;;;;;;;26.95;54.17;101173.78;5081707;28;20491;-88
2021/05/23 10:53:14;;;;;;;24.10;22.60;;;;;;;26.40;66.26;101165.59;5084455;28;20047;-89
2021/05/23 10:55:49;;;;;;;25.65;24.15;;;;;;;25.44;76.91;101168.81;5079958;28;20063;-88
2021/05/23 10:58:21;;;;;;;24.58;23.17;;;;;;;26.88;64.93;101157.03;5081398;28;20048;-90
2021/05/23 11:00:51;;;;;;;24.70;23.20;;;;;;;26.90;53.48;101164.91;5075106;28;20186;-89
2021/05/23 11:03:20;;;;;;;25.73;24.33;;;;;;;26.42;71.81;101162.59;5081752;28;20559;-90
2021/05/23 11:05:47;;;;;;;24.58;23.27;;;;;;;27.24;52.91;101164.47;5081699;28;20433;-89
2021/05/23 11:08:15;;;;;;;25.67;24.00;;;;;;;27.31;58.04;101151.22;5078405;28;20567;-90
2021/05/23 11:10:42;;;;;;;25.85;23.95;;;;;;;26.87;67.66;101151.88;5083194;28;20042;-90
2021/05/23 11:13:10;;;;;;;27.48;25.42;;;;;;;26.53;67.01;101144.94;5081143;28;20052;-89
2021/05/23 11:15:42;;;;;;;26.58;24.98;;;;;;;26.79;64.38;101147.16;5078417;28;20048;-89
2021/05/23 11:18:09;;;;;;;27.20;25.80;;;;;;;25.96;90.84;101138.91;5079168;28;20114;-89